createdAt,value
2018-07-04T00:01:00.959Z,101084.31
2018-07-04T00:03:40.809Z,101082.68
2018-07-04T00:06:20.607Z,101083.18
2018-07-04T00:09:00.404Z,101086.41
2018-07-04T00:11:40.165Z,101087.01
2018-07-04T00:14:19.955Z,101087.28
2018-07-04T00:16:59.580Z,101085.28
2018-07-04T00:19:39.440Z,101084.42
2018-07-04T00:22:19.132Z,101080.56
2018-07-04T00:24:58.864Z,101088.98
2018-07-04T00:27:38.676Z,101087.61
2018-07-04T00:30:18.654Z,101084.26
2018-07-04T00:32:58.491Z,101079.80
2018-07-04T00:35:38.320Z,101086.48
2018-07-04T00:38:17.871Z,101083.39
2018-07-04T00:40:57.642Z,101089.44
2018-07-04T00:43:37.455Z,101089.31
2018-07-04T00:46:17.221Z,101085.85
2018-07-04T00:48:56.839Z,101089.31
2018-07-04T00:51:36.502Z,101086.19
2018-07-04T00:54:16.236Z,101093.98
2018-07-04T00:56:56.013Z,101095.45
2018-07-04T00:59:35.790Z,101088.14
2018-07-04T01:02:15.579Z,101087.87
2018-07-04T01:04:55.369Z,101088.09
2018-07-04T01:07:35.101Z,101082.78
2018-07-04T01:10:14.997Z,101085.23
2018-07-04T01:12:54.965Z,101083.24
2018-07-04T01:15:34.854Z,101079.42
2018-07-04T01:18:14.421Z,101081.37
2018-07-04T01:20:59.520Z,101078.78
2018-07-04T01:23:39.286Z,101079.38
2018-07-04T01:26:19.123Z,101078.87
2018-07-04T01:28:58.800Z,101076.73
2018-07-04T01:31:38.529Z,101071.65
2018-07-04T01:34:18.291Z,101072.77
2018-07-04T01:36:58.039Z,101070.28
2018-07-04T01:39:37.676Z,101074.59
2018-07-04T01:42:17.454Z,101070.09
2018-07-04T01:44:57.227Z,101074.52
2018-07-04T01:47:36.946Z,101067.08
2018-07-04T01:50:16.649Z,101065.20
2018-07-04T01:52:56.288Z,101060.98
2018-07-04T01:55:36.032Z,101064.91
2018-07-04T01:58:15.706Z,101068.48
2018-07-04T02:00:55.512Z,101056.83
2018-07-04T02:03:35.084Z,101060.85
2018-07-04T02:06:14.728Z,101056.63
2018-07-04T02:08:54.457Z,101053.53
2018-07-04T02:11:34.181Z,101054.25
2018-07-04T02:14:13.965Z,101059.41
2018-07-04T02:16:53.739Z,101066.06
2018-07-04T02:19:33.584Z,101065.91
2018-07-04T02:22:13.252Z,101064.27
2018-07-04T02:24:53.163Z,101063.25
2018-07-04T02:27:33.002Z,101063.09
2018-07-04T02:30:12.739Z,101064.58
2018-07-04T02:32:52.456Z,101063.44
2018-07-04T02:35:31.973Z,101062.91
2018-07-04T02:38:11.771Z,101065.35
2018-07-04T02:40:51.537Z,101064.70
2018-07-04T02:43:31.348Z,101070.84
2018-07-04T02:46:11.151Z,101067.11
2018-07-04T02:48:50.857Z,101072.88
2018-07-04T02:51:30.519Z,101070.38
2018-07-04T02:54:10.338Z,101061.97
2018-07-04T02:56:50.228Z,101069.84
2018-07-04T02:59:29.948Z,101066.68
2018-07-04T03:02:10.726Z,101063.80
2018-07-04T03:04:50.402Z,101065.00
2018-07-04T03:07:30.279Z,101065.61
2018-07-04T03:10:10.089Z,101075.33
2018-07-04T03:12:49.828Z,101065.62
2018-07-04T03:15:29.625Z,101067.69
2018-07-04T03:18:09.345Z,101067.43
2018-07-04T03:20:49.018Z,101070.14
2018-07-04T03:23:28.780Z,101067.27
2018-07-04T03:26:08.518Z,101075.83
2018-07-04T03:28:48.297Z,101069.16
2018-07-04T03:31:28.074Z,101066.32
2018-07-04T03:34:07.745Z,101061.38
2018-07-04T03:36:47.602Z,101061.01
2018-07-04T03:39:27.413Z,101056.16
2018-07-04T03:42:07.104Z,101061.09
2018-07-04T03:44:46.719Z,101056.16
2018-07-04T03:47:26.341Z,101062.95
2018-07-04T03:50:06.799Z,101057.27
2018-07-04T03:52:46.559Z,101058.21
2018-07-04T03:55:26.326Z,101047.76
2018-07-04T03:58:06.140Z,101046.48
2018-07-04T04:00:45.889Z,101047.27
2018-07-04T04:03:25.698Z,101049.86
2018-07-04T04:06:05.361Z,101056.07
2018-07-04T04:08:45.024Z,101057.42
2018-07-04T04:11:24.807Z,101058.05
2018-07-04T04:14:04.667Z,101060.69
2018-07-04T04:16:44.472Z,101062.41
2018-07-04T04:19:31.764Z,101062.70
2018-07-04T04:22:11.564Z,101066.28
2018-07-04T04:24:51.419Z,101063.36
2018-07-04T04:27:31.465Z,101064.77
2018-07-04T04:30:11.216Z,101067.18
2018-07-04T04:32:50.970Z,101066.84
2018-07-04T04:35:31.321Z,101067.87
2018-07-04T04:38:11.068Z,101066.68
2018-07-04T04:40:50.839Z,101063.27
2018-07-04T04:43:30.546Z,101064.28
2018-07-04T04:46:10.448Z,101057.06
2018-07-04T04:48:50.157Z,101059.36
2018-07-04T04:51:30.042Z,101056.05
2018-07-04T04:54:09.766Z,101057.48
2018-07-04T04:56:49.565Z,101060.51
2018-07-04T04:59:29.308Z,101061.40
2018-07-04T05:02:09.108Z,101063.96
2018-07-04T05:04:49.764Z,101070.17
2018-07-04T05:07:29.363Z,101058.72
2018-07-04T05:10:09.089Z,101063.13
2018-07-04T05:12:48.794Z,101060.70
2018-07-04T05:15:28.543Z,101061.49
2018-07-04T05:18:08.214Z,101068.09
2018-07-04T05:20:48.094Z,101066.05
2018-07-04T05:23:27.743Z,101061.89
2018-07-04T05:26:07.655Z,101056.59
2018-07-04T05:28:47.431Z,101063.67
2018-07-04T05:31:27.178Z,101062.72
2018-07-04T05:34:06.793Z,101063.36
2018-07-04T05:36:46.859Z,101059.84
2018-07-04T05:39:26.215Z,101059.00
2018-07-04T05:42:06.027Z,101064.08
2018-07-04T05:44:45.851Z,101068.69
2018-07-04T05:47:25.447Z,101067.20
2018-07-04T05:50:05.441Z,101067.70
2018-07-04T05:52:45.164Z,101068.93
2018-07-04T05:55:24.944Z,101063.76
2018-07-04T05:58:04.540Z,101063.72
2018-07-04T06:00:44.391Z,101061.06
2018-07-04T06:03:24.056Z,101061.14
2018-07-04T06:06:03.815Z,101061.82
2018-07-04T06:08:43.603Z,101059.65
2018-07-04T06:11:23.363Z,101055.44
2018-07-04T06:14:03.119Z,101058.80
2018-07-04T06:16:43.060Z,101062.67
2018-07-04T06:19:22.801Z,101067.49
2018-07-04T06:22:02.770Z,101058.31
2018-07-04T06:24:42.398Z,101062.03
2018-07-04T06:27:22.144Z,101060.08
2018-07-04T06:30:01.883Z,101059.38
2018-07-04T06:32:41.641Z,101060.84
2018-07-04T06:35:21.551Z,101054.64
2018-07-04T06:37:48.790Z,101049.67
2018-07-04T06:40:16.061Z,101059.12
2018-07-04T06:42:43.351Z,101056.89
2018-07-04T06:45:10.598Z,101065.75
2018-07-04T06:47:37.854Z,101053.70
2018-07-04T06:50:05.117Z,101059.73
2018-07-04T06:52:32.446Z,101062.19
2018-07-04T06:54:59.725Z,101055.17
2018-07-04T06:57:26.988Z,101051.62
2018-07-04T06:59:54.253Z,101052.33
2018-07-04T07:02:21.815Z,101050.69
2018-07-04T07:05:02.584Z,101050.33
2018-07-04T07:07:42.152Z,101050.13
2018-07-04T07:10:21.833Z,101050.83
2018-07-04T07:13:01.621Z,101050.02
2018-07-04T07:15:41.427Z,101050.77
2018-07-04T07:18:21.207Z,101051.09
2018-07-04T07:21:01.084Z,101053.55
2018-07-04T07:23:40.812Z,101050.84
2018-07-04T07:26:20.397Z,101051.19
2018-07-04T07:29:00.192Z,101052.95
2018-07-04T07:31:39.973Z,101048.69
2018-07-04T07:34:19.975Z,101050.48
2018-07-04T07:36:59.665Z,101043.42
2018-07-04T07:39:39.480Z,101043.47
2018-07-04T07:42:19.328Z,101047.34
2018-07-04T07:44:59.024Z,101039.51
2018-07-04T07:47:38.752Z,101040.34
2018-07-04T07:50:18.490Z,101039.88
2018-07-04T07:52:58.287Z,101035.98
2018-07-04T07:55:37.990Z,101032.28
2018-07-04T07:58:17.739Z,101030.79
2018-07-04T08:00:57.411Z,101029.69
2018-07-04T08:03:37.227Z,101032.24
2018-07-04T08:06:16.852Z,101021.68
2018-07-04T08:08:56.372Z,101012.91
2018-07-04T08:11:36.223Z,101016.02
2018-07-04T08:14:16.040Z,101014.92
2018-07-04T08:16:55.730Z,101013.06
2018-07-04T08:19:35.560Z,101009.95
2018-07-04T08:22:15.307Z,101005.69
2018-07-04T08:24:55.208Z,101006.99
2018-07-04T08:27:34.901Z,101007.06
2018-07-04T08:30:14.746Z,101004.45
2018-07-04T08:32:54.547Z,101004.64
2018-07-04T08:35:34.181Z,100994.56
2018-07-04T08:38:13.920Z,100995.56
2018-07-04T08:40:53.767Z,100998.61
2018-07-04T08:43:33.592Z,100999.39
2018-07-04T08:46:13.172Z,101001.36
2018-07-04T08:48:53.081Z,100998.47
2018-07-04T08:51:32.715Z,100991.91
2018-07-04T08:54:12.465Z,100992.20
2018-07-04T08:56:52.366Z,100991.98
2018-07-04T08:59:32.008Z,100991.45
2018-07-04T09:02:11.715Z,100993.48
2018-07-04T09:04:51.480Z,100988.44
2018-07-04T09:07:31.227Z,100994.02
2018-07-04T09:10:10.937Z,100987.67
2018-07-04T09:12:50.580Z,100992.08
2018-07-04T09:15:30.453Z,100990.11
2018-07-04T09:18:10.068Z,100986.06
2018-07-04T09:20:49.817Z,100985.54
2018-07-04T09:23:29.873Z,100988.22
2018-07-04T09:26:09.907Z,100985.19
2018-07-04T09:28:49.454Z,100979.36
2018-07-04T09:31:29.415Z,100971.69
2018-07-04T09:34:09.236Z,100970.64
2018-07-04T09:36:48.974Z,100968.78
2018-07-04T09:39:28.776Z,100978.08
2018-07-04T09:42:08.598Z,100970.20
2018-07-04T09:44:48.483Z,100972.97
2018-07-04T09:47:28.322Z,100963.77
2018-07-04T09:50:07.955Z,100963.47
2018-07-04T09:52:47.580Z,100960.66
2018-07-04T09:55:27.384Z,100970.45
2018-07-04T09:58:07.072Z,100968.17
2018-07-04T10:00:52.216Z,100962.91
2018-07-04T10:03:31.991Z,100962.34
2018-07-04T10:06:11.664Z,100961.28
2018-07-04T10:08:51.476Z,100954.42
2018-07-04T10:11:31.360Z,100954.14
2018-07-04T10:14:10.965Z,100951.41
2018-07-04T10:16:50.583Z,100947.31
2018-07-04T10:19:30.541Z,100944.23
2018-07-04T10:22:10.204Z,100958.73
2018-07-04T10:24:49.880Z,100946.16
2018-07-04T10:27:29.667Z,100940.92
2018-07-04T10:30:09.548Z,100942.06
2018-07-04T10:32:49.409Z,100940.22
2018-07-04T10:35:29.189Z,100932.30
2018-07-04T10:38:08.813Z,100934.95
2018-07-04T10:40:48.739Z,100935.08
2018-07-04T10:43:28.280Z,100932.47
2018-07-04T10:46:07.997Z,100919.92
2018-07-04T10:48:47.536Z,100931.48
2018-07-04T10:51:27.383Z,100925.55
2018-07-04T10:54:07.170Z,100921.31
2018-07-04T10:56:46.795Z,100917.06
2018-07-04T10:59:26.443Z,100923.52
2018-07-04T11:02:06.220Z,100925.90
2018-07-04T11:04:45.962Z,100923.44
2018-07-04T11:07:25.799Z,100935.91
2018-07-04T11:10:05.605Z,100926.69
2018-07-04T11:12:45.679Z,100919.64
2018-07-04T11:15:25.299Z,100924.19
2018-07-04T11:18:05.216Z,100918.00
2018-07-04T11:20:45.002Z,100917.44
2018-07-04T11:23:24.812Z,100918.33
2018-07-04T11:26:04.633Z,100914.63
2018-07-04T11:28:44.409Z,100917.17
2018-07-04T11:31:24.170Z,100921.11
2018-07-04T11:34:03.849Z,100920.52
2018-07-04T11:36:43.568Z,100910.44
2018-07-04T11:39:23.115Z,100921.20
2018-07-04T11:42:03.003Z,100917.12
2018-07-04T11:44:42.616Z,100905.89
2018-07-04T11:47:09.896Z,100904.38
2018-07-04T11:49:37.216Z,100898.00
2018-07-04T11:52:04.464Z,100904.66
2018-07-04T11:54:32.434Z,100904.82
2018-07-04T11:56:59.704Z,100900.45
2018-07-04T11:59:27.036Z,100903.95
2018-07-04T12:01:54.300Z,100899.32
2018-07-04T12:04:33.920Z,100895.56
2018-07-04T12:07:08.487Z,100895.46
2018-07-04T12:09:36.980Z,100906.03
2018-07-04T12:12:04.252Z,100903.14
2018-07-04T12:14:31.909Z,100905.38
2018-07-04T12:16:59.750Z,100899.92
2018-07-04T12:19:27.310Z,100902.78
2018-07-04T12:21:54.826Z,100906.07
2018-07-04T12:24:22.097Z,100897.73
2018-07-04T12:26:49.974Z,100896.39
2018-07-04T12:29:17.251Z,100898.22
2018-07-04T12:31:44.509Z,100895.50
2018-07-04T12:34:11.762Z,100886.17
2018-07-04T12:36:39.034Z,100891.97
2018-07-04T12:39:06.360Z,100887.85
2018-07-04T12:41:33.671Z,100882.48
2018-07-04T12:44:00.938Z,100890.55
2018-07-04T12:46:28.494Z,100883.80
2018-07-04T12:49:05.712Z,100872.39
2018-07-04T12:51:34.295Z,100870.02
2018-07-04T12:54:06.936Z,100867.78
2018-07-04T12:56:47.038Z,100864.98
2018-07-04T12:59:26.668Z,100867.52
2018-07-04T13:02:06.444Z,100866.34
2018-07-04T13:04:46.570Z,100860.56
2018-07-04T13:07:26.551Z,100859.55
2018-07-04T13:10:06.177Z,100853.72
2018-07-04T13:12:46.038Z,100850.26
2018-07-04T13:15:25.783Z,100858.22
2018-07-04T13:18:05.648Z,100849.23
2018-07-04T13:20:45.334Z,100841.41
2018-07-04T13:23:25.140Z,100842.03
2018-07-04T13:26:04.995Z,100839.73
2018-07-04T13:28:44.648Z,100840.77
2018-07-04T13:31:24.416Z,100838.30
2018-07-04T13:34:04.206Z,100832.38
2018-07-04T13:36:43.856Z,100828.58
2018-07-04T13:39:23.672Z,100825.74
2018-07-04T13:42:03.432Z,100828.11
2018-07-04T13:44:43.206Z,100832.12
2018-07-04T13:47:23.197Z,100826.30
2018-07-04T13:50:03.384Z,100819.14
2018-07-04T13:52:42.996Z,100809.50
2018-07-04T13:55:22.979Z,100811.55
2018-07-04T13:58:04.046Z,100816.44
2018-07-04T14:00:43.924Z,100815.00
2018-07-04T14:03:23.653Z,100807.19
2018-07-04T14:06:03.448Z,100804.72
2018-07-04T14:08:43.397Z,100799.75
2018-07-04T14:11:23.244Z,100801.48
2018-07-04T14:14:03.145Z,100794.52
2018-07-04T14:16:42.753Z,100785.41
2018-07-04T14:19:22.580Z,100789.03
2018-07-04T14:22:02.480Z,100797.08
2018-07-04T14:24:42.128Z,100790.70
2018-07-04T14:27:21.985Z,100793.98
2018-07-04T14:30:01.820Z,100787.71
2018-07-04T14:32:41.524Z,100788.44
2018-07-04T14:35:21.309Z,100778.11
2018-07-04T14:38:01.200Z,100769.11
2018-07-04T14:40:40.972Z,100772.88
2018-07-04T14:43:21.266Z,100770.54
2018-07-04T14:46:00.823Z,100760.71
2018-07-04T14:48:40.669Z,100764.80
2018-07-04T14:51:20.419Z,100757.73
2018-07-04T14:54:00.129Z,100759.47
2018-07-04T14:56:39.861Z,100757.23
2018-07-04T14:59:19.660Z,100754.03
2018-07-04T15:01:59.468Z,100758.23
2018-07-04T15:04:39.164Z,100751.10
2018-07-04T15:07:19.763Z,100746.80
2018-07-04T15:09:59.559Z,100746.55
2018-07-04T15:12:39.386Z,100736.17
2018-07-04T15:15:19.176Z,100742.37
2018-07-04T15:17:58.828Z,100741.91
2018-07-04T15:20:38.644Z,100733.83
2018-07-04T15:23:18.647Z,100747.26
2018-07-04T15:25:58.620Z,100739.15
2018-07-04T15:28:38.986Z,100736.77
2018-07-04T15:31:18.731Z,100734.25
2018-07-04T15:33:58.454Z,100718.36
2018-07-04T15:36:38.270Z,100733.84
2018-07-04T15:39:18.082Z,100730.77
2018-07-04T15:41:57.858Z,100733.02
2018-07-04T15:44:37.635Z,100719.77
2018-07-04T15:47:17.401Z,100721.78
2018-07-04T15:49:57.126Z,100728.47
2018-07-04T15:52:36.838Z,100726.56
2018-07-04T15:55:16.528Z,100723.12
2018-07-04T15:57:56.206Z,100722.78
2018-07-04T16:00:36.030Z,100720.58
2018-07-04T16:03:15.898Z,100722.09
2018-07-04T16:05:55.694Z,100717.95
2018-07-04T16:08:35.431Z,100715.52
2018-07-04T16:11:15.052Z,100722.97
2018-07-04T16:13:54.887Z,100713.73
2018-07-04T16:16:34.720Z,100714.63
2018-07-04T16:19:14.577Z,100713.77
2018-07-04T16:21:54.348Z,100707.73
2018-07-04T16:24:33.998Z,100712.91
2018-07-04T16:27:13.821Z,100708.45
2018-07-04T16:29:53.666Z,100710.55
2018-07-04T16:32:33.383Z,100707.31
2018-07-04T16:35:13.158Z,100709.21
2018-07-04T16:37:52.991Z,100703.89
2018-07-04T16:40:32.852Z,100703.35
2018-07-04T16:43:12.685Z,100702.84
2018-07-04T16:45:52.540Z,100700.78
2018-07-04T16:48:32.262Z,100697.55
2018-07-04T16:51:12.233Z,100696.48
2018-07-04T16:53:52.076Z,100693.16
2018-07-04T16:56:31.911Z,100695.41
2018-07-04T16:59:11.879Z,100697.09
2018-07-04T17:01:51.707Z,100689.30
2018-07-04T17:04:31.489Z,100690.50
2018-07-04T17:07:11.330Z,100686.89
2018-07-04T17:09:50.942Z,100688.80
2018-07-04T17:12:30.687Z,100686.03
2018-07-04T17:15:10.183Z,100681.18
2018-07-04T17:17:49.926Z,100686.89
2018-07-04T17:20:29.784Z,100684.66
2018-07-04T17:23:09.385Z,100677.59
2018-07-04T17:25:49.168Z,100679.50
2018-07-04T17:28:28.976Z,100679.83
2018-07-04T17:31:08.819Z,100674.65
2018-07-04T17:33:49.084Z,100679.80
2018-07-04T17:36:28.870Z,100681.88
2018-07-04T17:39:08.925Z,100675.14
2018-07-04T17:41:48.596Z,100678.09
2018-07-04T17:44:28.485Z,100672.77
2018-07-04T17:47:08.438Z,100672.60
2018-07-04T17:49:48.083Z,100671.94
2018-07-04T17:52:27.917Z,100672.98
2018-07-04T17:55:07.555Z,100672.84
2018-07-04T17:57:47.322Z,100670.79
2018-07-04T18:00:27.125Z,100661.34
2018-07-04T18:03:06.869Z,100672.02
2018-07-04T18:05:46.804Z,100663.95
2018-07-04T18:08:26.513Z,100672.77
2018-07-04T18:11:06.414Z,100669.31
2018-07-04T18:13:46.183Z,100668.32
2018-07-04T18:16:25.916Z,100670.05
2018-07-04T18:19:05.549Z,100668.69
2018-07-04T18:21:45.218Z,100664.23
2018-07-04T18:24:25.570Z,100667.86
2018-07-04T18:27:05.226Z,100664.72
2018-07-04T18:29:45.073Z,100666.64
2018-07-04T18:32:24.784Z,100661.50
2018-07-04T18:35:04.338Z,100663.38
2018-07-04T18:37:44.139Z,100662.73
2018-07-04T18:40:23.899Z,100666.34
2018-07-04T18:43:03.508Z,100674.10
2018-07-04T18:45:44.479Z,100668.79
2018-07-04T18:48:24.202Z,100665.86
2018-07-04T18:51:03.851Z,100667.05
2018-07-04T18:53:44.109Z,100673.28
2018-07-04T18:56:23.860Z,100670.19
2018-07-04T18:59:03.748Z,100672.95
2018-07-04T19:01:43.468Z,100671.05
2018-07-04T19:04:23.278Z,100668.12
2018-07-04T19:07:03.044Z,100673.97
2018-07-04T19:09:42.863Z,100670.55
2018-07-04T19:12:22.744Z,100671.73
2018-07-04T19:15:02.391Z,100674.98
2018-07-04T19:17:42.172Z,100676.88
2018-07-04T19:20:22.148Z,100677.22
2018-07-04T19:23:01.953Z,100677.92
2018-07-04T19:25:41.644Z,100684.62
2018-07-04T19:28:21.291Z,100687.19
2018-07-04T19:31:00.976Z,100687.19
2018-07-04T19:33:40.748Z,100691.31
2018-07-04T19:36:20.592Z,100693.20
2018-07-04T19:39:00.316Z,100694.24
2018-07-04T19:41:40.194Z,100698.89
2018-07-04T19:44:19.845Z,100697.66
2018-07-04T19:46:59.638Z,100707.28
2018-07-04T19:49:39.455Z,100702.81
2018-07-04T19:52:19.128Z,100703.52
2018-07-04T19:54:59.417Z,100700.58
2018-07-04T19:57:38.977Z,100705.89
2018-07-04T20:00:18.757Z,100704.17
2018-07-04T20:02:58.859Z,100705.88
2018-07-04T20:05:38.383Z,100711.84
2018-07-04T20:08:18.157Z,100713.73
2018-07-04T20:10:57.910Z,100712.86
2018-07-04T20:13:37.664Z,100708.92
2018-07-04T20:16:17.383Z,100706.16
2018-07-04T20:18:57.127Z,100706.48
2018-07-04T20:21:36.863Z,100709.36
2018-07-04T20:24:16.616Z,100710.91
2018-07-04T20:26:56.203Z,100711.59
2018-07-04T20:29:36.017Z,100710.89
2018-07-04T20:32:15.505Z,100713.42
2018-07-04T20:34:55.198Z,100709.80
2018-07-04T20:37:34.994Z,100711.16
2018-07-04T20:40:14.840Z,100713.72
2018-07-04T20:42:54.675Z,100713.19
2018-07-04T20:45:34.523Z,100714.00
2018-07-04T20:48:14.215Z,100713.09
2018-07-04T20:50:53.958Z,100712.02
2018-07-04T20:53:33.758Z,100709.56
2018-07-04T20:56:13.445Z,100711.42
2018-07-04T20:58:53.295Z,100712.23
2018-07-04T21:01:33.107Z,100714.75
2018-07-04T21:04:12.952Z,100719.52
2018-07-04T21:06:52.793Z,100725.50
2018-07-04T21:09:32.384Z,100722.69
2018-07-04T21:12:12.070Z,100718.30
2018-07-04T21:14:51.800Z,100723.55
2018-07-04T21:17:32.506Z,100723.86
2018-07-04T21:20:12.684Z,100727.39
2018-07-04T21:22:52.587Z,100722.17
2018-07-04T21:25:32.297Z,100727.92
2018-07-04T21:28:12.559Z,100732.47
2018-07-04T21:30:52.495Z,100736.55
2018-07-04T21:33:32.331Z,100732.18
2018-07-04T21:36:12.103Z,100730.20
2018-07-04T21:38:51.881Z,100734.44
2018-07-04T21:41:31.687Z,100732.81
2018-07-04T21:44:11.313Z,100741.28
2018-07-04T21:46:51.141Z,100731.95
2018-07-04T21:49:30.820Z,100739.39
2018-07-04T21:52:10.608Z,100740.88
2018-07-04T21:54:50.238Z,100742.66
2018-07-04T21:57:30.084Z,100740.84
2018-07-04T22:00:09.746Z,100738.52
2018-07-04T22:02:49.416Z,100739.64
2018-07-04T22:05:29.192Z,100736.11
2018-07-04T22:08:09.039Z,100737.43
2018-07-04T22:10:48.938Z,100734.70
2018-07-04T22:13:28.590Z,100733.78
2018-07-04T22:16:08.380Z,100730.92
2018-07-04T22:18:48.089Z,100730.13
2018-07-04T22:21:28.299Z,100723.86
2018-07-04T22:24:08.024Z,100723.45
2018-07-04T22:26:47.929Z,100729.46
2018-07-04T22:29:27.968Z,100725.23
2018-07-04T22:32:08.241Z,100732.00
2018-07-04T22:34:48.036Z,100730.84
2018-07-04T22:37:27.948Z,100729.13
2018-07-04T22:40:07.727Z,100727.88
2018-07-04T22:42:47.548Z,100720.39
2018-07-04T22:45:27.422Z,100719.34
2018-07-04T22:48:07.068Z,100725.06
2018-07-04T22:50:46.882Z,100724.25
2018-07-04T22:53:26.619Z,100727.42
2018-07-04T22:56:06.399Z,100716.41
2018-07-04T22:58:46.285Z,100725.75
2018-07-04T23:01:26.130Z,100718.84
2018-07-04T23:04:06.198Z,100721.15
2018-07-04T23:06:45.904Z,100709.94
2018-07-04T23:09:25.673Z,100711.08
2018-07-04T23:12:05.356Z,100706.16
2018-07-04T23:14:45.119Z,100707.17
2018-07-04T23:17:24.847Z,100709.98
2018-07-04T23:20:04.677Z,100708.55
2018-07-04T23:22:44.546Z,100703.86
2018-07-04T23:25:24.291Z,100704.55
2018-07-04T23:28:03.995Z,100695.27
2018-07-04T23:30:43.787Z,100697.77
2018-07-04T23:33:23.590Z,100697.30
2018-07-04T23:36:03.306Z,100697.06
2018-07-04T23:38:43.088Z,100700.92
2018-07-04T23:41:22.900Z,100700.96
2018-07-04T23:44:02.646Z,100702.09
2018-07-04T23:46:42.603Z,100702.86
2018-07-04T23:49:22.374Z,100704.89
2018-07-04T23:52:02.175Z,100699.70
2018-07-04T23:54:41.891Z,100702.69
2018-07-04T23:59:54.528Z,100697.80
